Terminal Aerodrome Forecast
Issued by NWS Huntsville, AL

Home | Current Version | Previous Version | Text Only | Print | Product List | Glossary On
Versions: 1 2 3 4 5 6 7 8 9 10 11 12 13 14 15 16
000
FTUS44 KHUN 242103 AAB
TAFMSL
TAF AMD
KMSL 242103Z 2421/2518 24007KT P6SM VCTS SCT045CB
      TEMPO 2421/2422 3SM TSRA BKN030CB
     FM250000 VRB03KT P6SM SCT250
     FM251600 22006KT P6SM SCT040=

USA.gov is the U.S. government's official web portal to all federal, state and local government web resources and services.